Terminal Aerodrome Forecast
Issued by NWS

Current Version | Previous Version | Text Only | Print | Product List | Glossary On
Versions: 1 2 3 4 5 6 7 8 9 10 11 12 13 14 15 16
000 FTUS41 KILN 311738 TAFLCK TAF KLCK 311738Z 3118/0118 27012G18KT P6SM SCT050 FM312200 28011G18KT P6SM VCSH BKN050 FM010100 25005KT P6SM FEW080 FM011500 29006KT P6SM SCT060=

USA.gov is the U.S. government's official web portal to all federal, state and local government web resources and services.